createdAt,value
2019-03-22T00:01:18.329Z,92.80
2019-03-22T00:06:24.036Z,92.50
2019-03-22T00:11:48.027Z,92.60
2019-03-22T00:16:53.926Z,92.70
2019-03-22T00:21:59.565Z,92.50
2019-03-22T00:27:30.745Z,92.40
2019-03-22T00:32:36.564Z,92.40
2019-03-22T00:37:42.874Z,92.70
2019-03-22T00:42:48.578Z,92.70
2019-03-22T00:47:54.353Z,92.60
2019-03-22T00:52:59.954Z,92.40
2019-03-22T00:58:05.854Z,92.70
2019-03-22T01:03:11.800Z,92.70
2019-03-22T01:08:17.395Z,92.80
2019-03-22T01:13:23.392Z,92.90
2019-03-22T01:18:29.476Z,93.20
2019-03-22T01:23:34.997Z,93.30
2019-03-22T01:28:40.891Z,93.40
2019-03-22T01:33:46.536Z,93.30
2019-03-22T01:38:52.663Z,93.40
2019-03-22T01:43:58.711Z,93.60
2019-03-22T01:49:04.793Z,93.50
2019-03-22T01:54:10.647Z,93.50
2019-03-22T01:59:16.402Z,93.60
2019-03-22T02:04:22.166Z,93.70
2019-03-22T02:09:29.167Z,94.00
2019-03-22T02:14:35.859Z,93.90
2019-03-22T02:19:42.352Z,94.10
2019-03-22T02:24:48.217Z,94.20
2019-03-22T02:29:53.854Z,94.20
2019-03-22T02:34:59.734Z,94.40
2019-03-22T02:40:08.240Z,94.50
2019-03-22T02:45:16.105Z,94.50
2019-03-22T02:50:22.644Z,94.60
2019-03-22T02:55:28.680Z,94.80
2019-03-22T03:00:35.045Z,95.00
2019-03-22T03:05:41.204Z,95.00
2019-03-22T03:10:46.983Z,94.80
2019-03-22T03:15:52.339Z,94.80
2019-03-22T03:20:57.876Z,94.70
2019-03-22T03:26:03.697Z,94.60
2019-03-22T03:31:09.768Z,94.20
2019-03-22T03:36:15.665Z,94.40
2019-03-22T03:41:21.408Z,94.20
2019-03-22T03:46:27.208Z,94.40
2019-03-22T03:51:33.423Z,94.50
2019-03-22T03:56:38.985Z,94.50
2019-03-22T04:01:44.454Z,94.60
2019-03-22T04:06:50.234Z,94.90
2019-03-22T04:11:55.955Z,95.00
2019-03-22T04:17:01.419Z,95.20
2019-03-22T04:22:07.303Z,95.40
2019-03-22T04:27:13.037Z,95.70
2019-03-22T04:32:18.783Z,95.80
2019-03-22T04:37:24.673Z,95.90
2019-03-22T04:42:30.424Z,95.80
2019-03-22T04:47:36.959Z,95.50
2019-03-22T04:52:42.682Z,95.70
2019-03-22T04:57:49.262Z,95.50
2019-03-22T05:02:55.852Z,95.70
2019-03-22T05:08:02.244Z,95.70
2019-03-22T05:13:10.686Z,95.70
2019-03-22T05:18:16.902Z,95.90
2019-03-22T05:23:24.708Z,95.70
2019-03-22T05:28:31.860Z,95.60
2019-03-22T05:33:37.487Z,95.60
2019-03-22T05:38:42.738Z,95.50
2019-03-22T05:43:48.240Z,95.40
2019-03-22T05:48:54.092Z,95.40
2019-03-22T05:53:59.582Z,95.40
2019-03-22T05:59:05.221Z,95.50
2019-03-22T06:04:10.994Z,95.10
2019-03-22T06:09:16.802Z,94.80
2019-03-22T06:14:22.361Z,94.80
2019-03-22T06:19:27.626Z,94.70
2019-03-22T06:24:32.845Z,94.20
2019-03-22T06:29:39.144Z,94.10
2019-03-22T06:34:44.424Z,94.20
2019-03-22T06:39:49.377Z,94.20
2019-03-22T06:44:54.332Z,93.60
2019-03-22T06:49:59.540Z,93.70
2019-03-22T06:55:07.076Z,93.80
2019-03-22T07:00:14.059Z,93.40
2019-03-22T07:05:19.403Z,93.20
2019-03-22T07:10:24.776Z,92.90
2019-03-22T07:15:29.929Z,92.70
2019-03-22T07:20:35.307Z,92.80
2019-03-22T07:25:40.662Z,91.90
2019-03-22T07:30:46.526Z,91.30
2019-03-22T07:35:51.666Z,90.80
2019-03-22T07:40:56.756Z,90.50
2019-03-22T07:46:02.807Z,89.60
2019-03-22T07:51:08.376Z,87.80
2019-03-22T07:56:13.991Z,86.70
2019-03-22T08:01:18.981Z,86.70
2019-03-22T08:06:24.195Z,85.70
2019-03-22T08:11:29.918Z,82.40
2019-03-22T08:16:35.058Z,81.90
2019-03-22T08:21:40.272Z,83.00
2019-03-22T08:26:45.595Z,81.80
2019-03-22T08:31:51.278Z,79.10
2019-03-22T08:36:56.458Z,79.90
2019-03-22T08:42:01.328Z,79.70
2019-03-22T08:47:06.685Z,79.70
2019-03-22T08:52:11.693Z,80.30
2019-03-22T08:57:16.717Z,80.30
2019-03-22T09:02:22.146Z,79.20
2019-03-22T09:07:27.660Z,78.40
2019-03-22T09:12:32.767Z,78.30
2019-03-22T09:17:37.740Z,76.20
2019-03-22T09:22:43.527Z,78.70
2019-03-22T09:27:48.690Z,75.60
2019-03-22T09:32:53.822Z,77.10
2019-03-22T09:38:07.819Z,78.40
2019-03-22T09:43:05.604Z,80.10
2019-03-22T09:48:10.907Z,80.20
2019-03-22T09:53:16.551Z,78.80
2019-03-22T09:58:21.807Z,79.20
2019-03-22T10:03:26.917Z,79.00
2019-03-22T10:08:32.196Z,80.10
2019-03-22T10:13:37.326Z,79.30
2019-03-22T10:18:42.275Z,76.90
2019-03-22T10:23:47.567Z,75.30
2019-03-22T10:28:52.918Z,75.50
2019-03-22T10:33:58.324Z,74.00
2019-03-22T10:39:04.418Z,73.30
2019-03-22T10:44:09.598Z,74.50
2019-03-22T10:49:14.513Z,76.60
2019-03-22T10:54:20.230Z,75.60
2019-03-22T10:59:25.706Z,75.80
2019-03-22T11:04:30.717Z,76.90
2019-03-22T11:09:35.783Z,76.00
2019-03-22T11:14:41.294Z,75.00
2019-03-22T11:19:46.759Z,75.00
2019-03-22T11:24:52.203Z,73.90
2019-03-22T11:29:57.405Z,73.20
2019-03-22T11:35:03.486Z,70.70
2019-03-22T11:40:14.622Z,70.60
2019-03-22T11:45:21.598Z,69.90
2019-03-22T11:50:29.027Z,73.50
2019-03-22T11:55:34.958Z,74.30
2019-03-22T12:00:40.280Z,72.90
2019-03-22T12:05:45.331Z,73.60
2019-03-22T12:10:50.859Z,73.20
2019-03-22T12:15:56.087Z,72.20
2019-03-22T12:21:01.748Z,69.30
2019-03-22T12:26:07.333Z,65.50
2019-03-22T12:31:12.849Z,68.20
2019-03-22T12:36:18.632Z,65.00
2019-03-22T12:41:24.348Z,59.50
2019-03-22T12:46:29.987Z,60.70
2019-03-22T12:51:35.351Z,62.00
2019-03-22T12:56:40.458Z,63.70
2019-03-22T13:01:46.123Z,64.00
2019-03-22T13:06:53.179Z,61.00
2019-03-22T13:11:59.104Z,62.20
2019-03-22T13:17:04.891Z,64.30
2019-03-22T13:22:10.341Z,63.70
2019-03-22T13:27:15.698Z,64.50
2019-03-22T13:32:21.548Z,61.80
2019-03-22T13:37:26.905Z,62.90
2019-03-22T13:42:32.702Z,63.80
2019-03-22T13:47:38.731Z,63.80
2019-03-22T13:52:43.712Z,62.40
2019-03-22T13:57:48.897Z,63.40
2019-03-22T14:03:02.893Z,64.30
2019-03-22T14:08:01.371Z,65.60
2019-03-22T14:13:07.785Z,63.90
2019-03-22T14:18:13.776Z,61.00
2019-03-22T14:23:19.517Z,59.60
2019-03-22T14:28:24.766Z,59.30
2019-03-22T14:33:30.633Z,58.30
2019-03-22T14:38:36.043Z,57.60
2019-03-22T14:43:41.521Z,58.10
2019-03-22T14:48:46.447Z,57.50
2019-03-22T14:53:51.918Z,55.90
2019-03-22T14:58:57.514Z,56.70
2019-03-22T15:04:03.247Z,56.50
2019-03-22T15:09:09.331Z,54.90
2019-03-22T15:14:28.141Z,55.60
2019-03-22T15:19:35.244Z,55.40
2019-03-22T15:24:45.236Z,55.20
2019-03-22T15:29:55.336Z,55.20
2019-03-22T15:35:19.421Z,56.10
2019-03-22T15:40:25.003Z,58.00
2019-03-22T15:45:30.485Z,59.30
2019-03-22T15:50:36.270Z,59.00
2019-03-22T15:55:41.656Z,59.60
2019-03-22T16:00:47.013Z,60.90
2019-03-22T16:05:52.573Z,59.00
2019-03-22T16:10:58.303Z,59.00
2019-03-22T16:16:03.565Z,58.70
2019-03-22T16:21:09.584Z,58.40
2019-03-22T16:26:14.861Z,59.20
2019-03-22T16:31:20.646Z,60.60
2019-03-22T16:36:26.279Z,62.00
2019-03-22T16:41:32.147Z,62.50
2019-03-22T16:46:37.891Z,64.10
2019-03-22T16:51:43.436Z,65.90
2019-03-22T16:56:49.387Z,67.20
2019-03-22T17:01:55.024Z,68.00
2019-03-22T17:07:00.867Z,68.60
2019-03-22T17:12:06.228Z,69.60
2019-03-22T17:17:11.431Z,70.40
2019-03-22T17:22:17.284Z,71.30
2019-03-22T17:27:22.784Z,72.30
2019-03-22T17:32:29.476Z,73.20
2019-03-22T17:37:34.951Z,73.90
2019-03-22T17:42:40.705Z,74.90
2019-03-22T17:47:46.289Z,75.30
2019-03-22T17:52:52.265Z,76.30
2019-03-22T17:57:58.219Z,78.00
2019-03-22T18:03:03.434Z,80.80
2019-03-22T18:08:08.645Z,83.60
2019-03-22T18:13:14.963Z,84.00
2019-03-22T18:18:20.976Z,84.60
2019-03-22T18:23:35.397Z,84.50
2019-03-22T18:28:35.798Z,85.10
2019-03-22T18:33:42.155Z,86.70
2019-03-22T18:38:47.716Z,86.70
2019-03-22T18:43:53.219Z,87.40
2019-03-22T18:48:58.963Z,87.90
2019-03-22T18:54:05.062Z,88.90
2019-03-22T18:59:10.433Z,89.90
2019-03-22T19:04:16.080Z,90.90
2019-03-22T19:09:22.733Z,91.60
2019-03-22T19:14:29.321Z,91.80
2019-03-22T19:19:34.954Z,92.00
2019-03-22T19:24:41.754Z,92.00
2019-03-22T19:29:47.994Z,92.60
2019-03-22T19:34:54.646Z,93.10
2019-03-22T19:40:01.672Z,94.10
2019-03-22T19:45:27.581Z,94.70
2019-03-22T19:50:33.769Z,94.80
2019-03-22T19:55:39.442Z,95.00
2019-03-22T20:00:44.603Z,95.00
2019-03-22T20:05:50.716Z,95.10
2019-03-22T20:10:56.086Z,95.10
2019-03-22T20:16:02.081Z,96.10
2019-03-22T20:21:07.977Z,96.20
2019-03-22T20:26:13.748Z,96.40
2019-03-22T20:31:19.610Z,96.60
2019-03-22T20:36:24.975Z,96.80
2019-03-22T20:41:30.032Z,97.60
2019-03-22T20:46:35.356Z,98.10
2019-03-22T20:51:41.104Z,97.90
2019-03-22T20:56:46.432Z,98.00
2019-03-22T21:01:52.071Z,98.20
2019-03-22T21:06:57.518Z,98.40
2019-03-22T21:12:03.968Z,98.60
2019-03-22T21:17:10.572Z,98.40
2019-03-22T21:22:17.131Z,98.20
2019-03-22T21:27:23.738Z,98.20
2019-03-22T21:32:29.133Z,98.10
2019-03-22T21:37:34.428Z,97.70
2019-03-22T21:42:40.993Z,97.90
2019-03-22T21:47:46.580Z,98.00
2019-03-22T21:52:51.905Z,98.10
2019-03-22T21:57:57.615Z,97.90
2019-03-22T22:03:03.883Z,98.00
2019-03-22T22:08:09.415Z,97.70
2019-03-22T22:13:15.089Z,97.70
2019-03-22T22:18:22.043Z,97.70
2019-03-22T22:23:27.695Z,97.80
2019-03-22T22:28:45.565Z,97.80
2019-03-22T22:33:50.831Z,97.80
2019-03-22T22:38:57.539Z,97.90
2019-03-22T22:44:03.733Z,97.50
2019-03-22T22:49:09.164Z,97.20
2019-03-22T22:54:14.943Z,97.30
2019-03-22T22:59:20.093Z,97.30
2019-03-22T23:04:25.456Z,97.50
2019-03-22T23:09:32.318Z,97.60
2019-03-22T23:14:38.986Z,97.60
2019-03-22T23:19:44.470Z,97.70
2019-03-22T23:24:50.551Z,97.70
2019-03-22T23:29:56.099Z,98.00
2019-03-22T23:35:02.169Z,98.40
2019-03-22T23:40:08.174Z,98.70
2019-03-22T23:45:14.321Z,98.70
2019-03-22T23:50:19.765Z,98.80
2019-03-22T23:55:24.822Z,98.60
